Airfield :
LOGIN :

Register | Disclaimer

   EN    FR    IT 

 










Legend :    VFR   Marginal VFR   IFR   Intensive IFR   Very Intensive IFR
Visi :
Ceiling :
>= 8 km
>= 3000ft
5 to 8 km
1000 to 3000 ft
1500m to 5 km
500 to 1000 ft
800 to 1500m
200 to 500 ft
< 800m
< 200 ft
Symbols :   Thunderstorms  Fog  Heavy snow  Heavy precipitations  Wind > 20 kt
SIGMETs :     Misc.  Thunderstorms  Icing  Turbulence  Mountain Waves  Volcanic Ashes







- Airport Elevation : 1465 ft


LSMP - Payerne

CURRENT METAR :
  • 280250Z AUTO VRB02KT 9999NDV BKN130 16/16 Q1004 RMK

EXPIRED METARs :
  • 280150Z AUTO 00000KT 9000NDV RA FEW037 BKN077 BKN094 17/15 Q1004 RMK
  • 280050Z AUTO 22006KT 190V250 9999NDV SHRA FEW031 SCT042 BKN063 17/16 Q1006 RMK

Expired Forecast.
No reported NOTAMs for that airfield.
2 SIGMETs reported for the Switzerland FIR (LSAS) :
 
Embedded thunderstorms
LSAS SIGMET 2 VALID 280330/280530 LSZH
LSAS SWITZERLAND FIR/UIR EMBD TS OBS WI N4703 E00838 - N4652 E01007 - N4635 E01043 - N4541 E00954 - N4534 E00751 - N4607 E00745 - N4641 E00759 - N4703 E00838 TOP FL380 MOV NE NC=
Embedded thunderstorms
LSAS SIGMET 1 VALID 280043/280330 LSZH
LSAS SWITZERLAND FIR/UIR EMBD TS OBS WI N4746 E00939 - N4620 E01018 - N4541 E00954 - N4543 E00703 - N4606 E00615 - N4654 E00703 - N4730 E00804 - N4746 E00939 TOP FL400 MOV NE INTSF=



MET'MAP, your aeronautical weather chart ! - Copyright ORBIFLY December 2007 - Disclaimer

ORBIFLY MET'MAP TEAM :

Programming & Development : Alexandra Zaïnal
Concept & Development : Baudouin d'Aumeries
Co-Development & Prog : Marc-Olivier Méhu
Technical & hardware support : Manuel Goepfert

Contact : metmap@orbifly.com




SOURCES & CREDITS :

   NOAA